sensor_id;sensor_type;location;lat;lon;timestamp;pressure;altitude;pressure_sealevel;temperature;humidity
65666;BME280;52365;47.464;18.976;2023-05-21T00:00:20;99930.84;;;20.61;51.43
65666;BME280;52365;47.464;18.976;2023-05-21T00:00:41;99928.69;;;20.54;51.77
65666;BME280;52365;47.464;18.976;2023-05-21T00:01:02;99923.78;;;20.47;52.00
65666;BME280;52365;47.464;18.976;2023-05-21T00:01:26;99924.09;;;20.62;51.52
65666;BME280;52365;47.464;18.976;2023-05-21T00:01:47;99918.91;;;20.77;51.26
65666;BME280;52365;47.464;18.976;2023-05-21T00:02:09;99930.00;;;20.66;51.31
65666;BME280;52365;47.464;18.976;2023-05-21T00:02:31;99923.88;;;20.60;51.75
65666;BME280;52365;47.464;18.976;2023-05-21T00:02:54;99921.28;;;20.86;51.05
65666;BME280;52365;47.464;18.976;2023-05-21T00:03:15;99922.00;;;20.87;51.06
65666;BME280;52365;47.464;18.976;2023-05-21T00:03:36;99917.72;;;20.54;51.45
65666;BME280;52365;47.464;18.976;2023-05-21T00:04:01;99920.78;;;20.50;51.91
65666;BME280;52365;47.464;18.976;2023-05-21T00:04:23;99920.78;;;20.50;51.93
65666;BME280;52365;47.464;18.976;2023-05-21T00:04:45;99925.50;;;20.50;51.91
65666;BME280;52365;47.464;18.976;2023-05-21T00:05:06;99921.19;;;20.35;52.17
65666;BME280;52365;47.464;18.976;2023-05-21T00:05:31;99915.06;;;20.29;52.36
65666;BME280;52365;47.464;18.976;2023-05-21T00:05:52;99919.19;;;20.17;52.69
65666;BME280;52365;47.464;18.976;2023-05-21T00:06:13;99921.44;;;20.37;52.37
65666;BME280;52365;47.464;18.976;2023-05-21T00:06:35;99921.78;;;20.28;52.35
65666;BME280;52365;47.464;18.976;2023-05-21T00:06:58;99918.72;;;20.13;52.94
65666;BME280;52365;47.464;18.976;2023-05-21T00:07:19;99929.03;;;20.26;52.94
65666;BME280;52365;47.464;18.976;2023-05-21T00:07:40;99931.94;;;20.09;53.30
65666;BME280;52365;47.464;18.976;2023-05-21T00:08:01;99926.56;;;20.22;52.90
65666;BME280;52365;47.464;18.976;2023-05-21T00:08:22;99924.81;;;20.25;52.56
65666;BME280;52365;47.464;18.976;2023-05-21T00:08:43;99925.84;;;20.41;52.36
65666;BME280;52365;47.464;18.976;2023-05-21T00:09:05;99922.59;;;20.42;52.20
65666;BME280;52365;47.464;18.976;2023-05-21T00:09:26;99927.09;;;20.21;52.76
65666;BME280;52365;47.464;18.976;2023-05-21T00:09:42;99930.41;;;20.32;52.51
65666;BME280;52365;47.464;18.976;2023-05-21T00:10:03;99929.56;;;20.24;52.53
65666;BME280;52365;47.464;18.976;2023-05-21T00:10:20;99926.56;;;20.22;52.70
65666;BME280;52365;47.464;18.976;2023-05-21T00:10:41;99922.94;;;20.14;53.01
65666;BME280;52365;47.464;18.976;2023-05-21T00:11:02;99917.06;;;20.29;52.77
65666;BME280;52365;47.464;18.976;2023-05-21T00:11:23;99920.28;;;20.27;52.58
65666;BME280;52365;47.464;18.976;2023-05-21T00:11:44;99925.72;;;20.33;52.53
65666;BME280;52365;47.464;18.976;2023-05-21T00:12:08;99930.00;;;20.47;52.08
65666;BME280;52365;47.464;18.976;2023-05-21T00:12:29;99927.22;;;20.53;52.01
65666;BME280;52365;47.464;18.976;2023-05-21T00:12:51;99924.84;;;20.62;51.58
65666;BME280;52365;47.464;18.976;2023-05-21T00:13:12;99925.13;;;20.78;51.23
65666;BME280;52365;47.464;18.976;2023-05-21T00:13:34;99920.47;;;20.54;51.61
65666;BME280;52365;47.464;18.976;2023-05-21T00:13:50;99930.53;;;20.46;51.94
65666;BME280;52365;47.464;18.976;2023-05-21T00:14:11;99929.84;;;20.40;52.14
65666;BME280;52365;47.464;18.976;2023-05-21T00:14:32;99923.63;;;20.39;52.34
65666;BME280;52365;47.464;18.976;2023-05-21T00:14:53;99935.25;;;20.26;52.66
65666;BME280;52365;47.464;18.976;2023-05-21T00:15:14;99933.44;;;20.10;52.98
65666;BME280;52365;47.464;18.976;2023-05-21T00:15:35;99939.59;;;19.92;53.69
65666;BME280;52365;47.464;18.976;2023-05-21T00:15:56;99936.03;;;20.02;53.58
65666;BME280;52365;47.464;18.976;2023-05-21T00:16:17;99935.88;;;20.13;53.11
65666;BME280;52365;47.464;18.976;2023-05-21T00:16:38;99934.03;;;20.03;53.39
65666;BME280;52365;47.464;18.976;2023-05-21T00:16:59;99930.56;;;20.02;53.32
65666;BME280;52365;47.464;18.976;2023-05-21T00:17:16;99935.03;;;20.24;52.98
65666;BME280;52365;47.464;18.976;2023-05-21T00:17:37;99931.41;;;20.35;52.58
65666;BME280;52365;47.464;18.976;2023-05-21T00:17:59;99934.97;;;20.05;53.21
65666;BME280;52365;47.464;18.976;2023-05-21T00:18:20;99940.94;;;20.28;52.75
65666;BME280;52365;47.464;18.976;2023-05-21T00:18:41;99934.13;;;20.16;52.79
65666;BME280;52365;47.464;18.976;2023-05-21T00:19:03;99934.56;;;20.20;52.74
65666;BME280;52365;47.464;18.976;2023-05-21T00:19:19;99938.53;;;20.00;53.34
65666;BME280;52365;47.464;18.976;2023-05-21T00:19:40;99938.75;;;19.78;53.98
65666;BME280;52365;47.464;18.976;2023-05-21T00:20:02;99929.84;;;19.96;53.94
65666;BME280;52365;47.464;18.976;2023-05-21T00:20:21;99942.75;;;19.77;54.04
65666;BME280;52365;47.464;18.976;2023-05-21T00:20:42;99931.28;;;20.03;53.69
65666;BME280;52365;47.464;18.976;2023-05-21T00:21:05;99934.69;;;20.09;53.42
65666;BME280;52365;47.464;18.976;2023-05-21T00:21:21;99933.84;;;20.20;53.13
65666;BME280;52365;47.464;18.976;2023-05-21T00:21:37;99939.31;;;20.20;52.93
65666;BME280;52365;47.464;18.976;2023-05-21T00:21:59;99935.16;;;20.13;53.09
65666;BME280;52365;47.464;18.976;2023-05-21T00:22:24;99935.41;;;19.91;53.61
65666;BME280;52365;47.464;18.976;2023-05-21T00:22:45;99932.19;;;20.11;53.20
65666;BME280;52365;47.464;18.976;2023-05-21T00:23:06;99923.59;;;20.01;53.43
65666;BME280;52365;47.464;18.976;2023-05-21T00:23:27;99928.75;;;20.05;53.70
65666;BME280;52365;47.464;18.976;2023-05-21T00:23:49;99930.13;;;20.36;52.76
65666;BME280;52365;47.464;18.976;2023-05-21T00:24:11;99925.56;;;20.44;52.33
65666;BME280;52365;47.464;18.976;2023-05-21T00:24:32;99932.16;;;20.54;52.11
65666;BME280;52365;47.464;18.976;2023-05-21T00:24:53;99926.47;;;20.71;51.63
65666;BME280;52365;47.464;18.976;2023-05-21T00:25:13;99931.38;;;20.59;51.95
65666;BME280;52365;47.464;18.976;2023-05-21T00:25:34;99927.13;;;20.58;51.91
65666;BME280;52365;47.464;18.976;2023-05-21T00:25:55;99926.75;;;20.49;52.10
65666;BME280;52365;47.464;18.976;2023-05-21T00:26:16;99930.47;;;20.51;52.02
65666;BME280;52365;47.464;18.976;2023-05-21T00:26:37;99926.22;;;20.31;52.70
65666;BME280;52365;47.464;18.976;2023-05-21T00:26:58;99940.13;;;20.33;52.53
65666;BME280;52365;47.464;18.976;2023-05-21T00:27:19;99923.47;;;20.31;52.65
65666;BME280;52365;47.464;18.976;2023-05-21T00:27:40;99931.19;;;20.33;52.66
65666;BME280;52365;47.464;18.976;2023-05-21T00:28:02;99927.09;;;20.21;52.86
65666;BME280;52365;47.464;18.976;2023-05-21T00:28:23;99930.88;;;20.18;53.08
65666;BME280;52365;47.464;18.976;2023-05-21T00:28:44;99925.09;;;20.21;52.94
65666;BME280;52365;47.464;18.976;2023-05-21T00:29:05;99928.12;;;20.18;53.10
65666;BME280;52365;47.464;18.976;2023-05-21T00:29:26;99927.84;;;19.97;53.59
65666;BME280;52365;47.464;18.976;2023-05-21T00:29:47;99922.91;;;19.95;53.68
65666;BME280;52365;47.464;18.976;2023-05-21T00:30:08;99924.91;;;19.95;53.55
65666;BME280;52365;47.464;18.976;2023-05-21T00:30:29;99930.69;;;20.10;53.50
65666;BME280;52365;47.464;18.976;2023-05-21T00:30:50;99923.88;;;19.98;53.51
65666;BME280;52365;47.464;18.976;2023-05-21T00:31:11;99929.94;;;19.91;53.76
65666;BME280;52365;47.464;18.976;2023-05-21T00:31:32;99930.38;;;19.95;53.81
65666;BME280;52365;47.464;18.976;2023-05-21T00:31:53;99927.81;;;19.78;53.95
65666;BME280;52365;47.464;18.976;2023-05-21T00:32:15;99933.69;;;19.87;53.92
65666;BME280;52365;47.464;18.976;2023-05-21T00:32:36;99933.13;;;19.95;53.56
65666;BME280;52365;47.464;18.976;2023-05-21T00:32:57;99935.31;;;19.96;53.44
65666;BME280;52365;47.464;18.976;2023-05-21T00:33:22;99934.47;;;20.07;53.33
65666;BME280;52365;47.464;18.976;2023-05-21T00:33:46;99940.75;;;19.77;53.77
65666;BME280;52365;47.464;18.976;2023-05-21T00:34:07;99939.31;;;19.71;54.13
65666;BME280;52365;47.464;18.976;2023-05-21T00:34:27;99935.62;;;19.68;54.29
65666;BME280;52365;47.464;18.976;2023-05-21T00:34:49;99938.44;;;19.62;54.56
65666;BME280;52365;47.464;18.976;2023-05-21T00:35:10;99930.22;;;19.62;54.47
65666;BME280;52365;47.464;18.976;2023-05-21T00:35:31;99932.31;;;20.00;53.80
65666;BME280;52365;47.464;18.976;2023-05-21T00:35:52;99936.12;;;19.91;53.69
65666;BME280;52365;47.464;18.976;2023-05-21T00:36:13;99928.56;;;19.78;53.97
65666;BME280;52365;47.464;18.976;2023-05-21T00:36:34;99933.19;;;19.89;53.80
65666;BME280;52365;47.464;18.976;2023-05-21T00:36:55;99939.84;;;19.94;53.83
65666;BME280;52365;47.464;18.976;2023-05-21T00:37:17;99935.56;;;19.98;53.56
65666;BME280;52365;47.464;18.976;2023-05-21T00:37:38;99936.06;;;19.97;53.57
65666;BME280;52365;47.464;18.976;2023-05-21T00:37:59;99936.53;;;20.01;53.41
65666;BME280;52365;47.464;18.976;2023-05-21T00:38:20;99937.56;;;19.98;53.55
65666;BME280;52365;47.464;18.976;2023-05-21T00:38:36;99931.97;;;20.28;52.92
65666;BME280;52365;47.464;18.976;2023-05-21T00:38:57;99931.47;;;20.29;52.84
65666;BME280;52365;47.464;18.976;2023-05-21T00:39:18;99940.03;;;20.20;52.68
65666;BME280;52365;47.464;18.976;2023-05-21T00:39:40;99934.53;;;20.01;53.42
65666;BME280;52365;47.464;18.976;2023-05-21T00:40:01;99943.34;;;20.13;53.24
65666;BME280;52365;47.464;18.976;2023-05-21T00:40:24;99938.94;;;19.85;53.70
65666;BME280;52365;47.464;18.976;2023-05-21T00:40:45;99939.03;;;19.74;54.33
65666;BME280;52365;47.464;18.976;2023-05-21T00:41:06;99942.00;;;20.01;53.66
65666;BME280;52365;47.464;18.976;2023-05-21T00:41:27;99936.31;;;19.99;53.54
65666;BME280;52365;47.464;18.976;2023-05-21T00:41:44;99935.34;;;19.72;54.11
65666;BME280;52365;47.464;18.976;2023-05-21T00:42:06;99930.50;;;19.83;54.12
65666;BME280;52365;47.464;18.976;2023-05-21T00:42:27;99942.13;;;19.65;54.47
65666;BME280;52365;47.464;18.976;2023-05-21T00:42:50;99941.16;;;19.87;54.11
65666;BME280;52365;47.464;18.976;2023-05-21T00:43:11;99938.47;;;19.81;53.88
65666;BME280;52365;47.464;18.976;2023-05-21T00:43:34;99939.31;;;19.71;54.31
65666;BME280;52365;47.464;18.976;2023-05-21T00:43:55;99937.69;;;19.86;54.08
65666;BME280;52365;47.464;18.976;2023-05-21T00:44:16;99930.78;;;19.80;54.16
65666;BME280;52365;47.464;18.976;2023-05-21T00:44:39;99925.66;;;20.14;53.44
65666;BME280;52365;47.464;18.976;2023-05-21T00:45:00;99933.97;;;20.27;52.84
65666;BME280;52365;47.464;18.976;2023-05-21T00:45:18;99932.47;;;20.07;53.15
65666;BME280;52365;47.464;18.976;2023-05-21T00:45:40;99930.47;;;20.08;53.21
65666;BME280;52365;47.464;18.976;2023-05-21T00:46:09;99927.72;;;19.89;53.71
65666;BME280;52365;47.464;18.976;2023-05-21T00:46:31;99931.69;;;19.88;53.81
65666;BME280;52365;47.464;18.976;2023-05-21T00:46:52;99930.03;;;20.04;53.52
65666;BME280;52365;47.464;18.976;2023-05-21T00:47:13;99939.31;;;20.20;53.13
65666;BME280;52365;47.464;18.976;2023-05-21T00:47:37;99931.75;;;20.26;52.97
65666;BME280;52365;47.464;18.976;2023-05-21T00:47:58;99931.66;;;19.94;53.43
65666;BME280;52365;47.464;18.976;2023-05-21T00:48:21;99930.22;;;19.57;54.68
65666;BME280;52365;47.464;18.976;2023-05-21T00:48:44;99933.06;;;19.46;55.08
65666;BME280;52365;47.464;18.976;2023-05-21T00:49:05;99932.87;;;19.38;55.35
65666;BME280;52365;47.464;18.976;2023-05-21T00:49:27;99933.19;;;19.59;55.09
65666;BME280;52365;47.464;18.976;2023-05-21T00:49:49;99931.13;;;19.71;54.60
65666;BME280;52365;47.464;18.976;2023-05-21T00:50:13;99932.50;;;19.53;54.82
65666;BME280;52365;47.464;18.976;2023-05-21T00:50:34;99930.44;;;19.65;54.92
65666;BME280;52365;47.464;18.976;2023-05-21T00:50:55;99928.00;;;19.55;55.02
65666;BME280;52365;47.464;18.976;2023-05-21T00:51:15;99923.44;;;19.69;54.85
65666;BME280;52365;47.464;18.976;2023-05-21T00:51:38;99929.88;;;19.72;54.64
65666;BME280;52365;47.464;18.976;2023-05-21T00:51:59;99926.97;;;19.64;54.71
65666;BME280;52365;47.464;18.976;2023-05-21T00:52:16;99925.37;;;19.44;55.04
65666;BME280;52365;47.464;18.976;2023-05-21T00:52:41;99932.94;;;19.32;55.58
65666;BME280;52365;47.464;18.976;2023-05-21T00:53:02;99930.34;;;19.46;55.35
65666;BME280;52365;47.464;18.976;2023-05-21T00:53:24;99929.53;;;19.51;55.37
65666;BME280;52365;47.464;18.976;2023-05-21T00:53:49;99924.34;;;19.77;54.63
65666;BME280;52365;47.464;18.976;2023-05-21T00:54:12;99930.19;;;20.11;53.72
65666;BME280;52365;47.464;18.976;2023-05-21T00:54:33;99924.22;;;19.88;53.66
65666;BME280;52365;47.464;18.976;2023-05-21T00:54:54;99925.81;;;19.78;54.41
65666;BME280;52365;47.464;18.976;2023-05-21T00:55:15;99925.59;;;19.76;54.65
65666;BME280;52365;47.464;18.976;2023-05-21T00:55:36;99921.06;;;19.84;54.32
65666;BME280;52365;47.464;18.976;2023-05-21T00:55:58;99922.97;;;19.65;54.54
65666;BME280;52365;47.464;18.976;2023-05-21T00:56:20;99915.88;;;19.51;55.10
65666;BME280;52365;47.464;18.976;2023-05-21T00:56:42;99916.69;;;19.70;54.73
65666;BME280;52365;47.464;18.976;2023-05-21T00:57:03;99923.09;;;19.78;54.39
65666;BME280;52365;47.464;18.976;2023-05-21T00:57:25;99923.53;;;19.82;54.33
65666;BME280;52365;47.464;18.976;2023-05-21T00:57:42;99922.97;;;19.90;54.17
65666;BME280;52365;47.464;18.976;2023-05-21T00:58:03;99927.47;;;19.87;54.12
65666;BME280;52365;47.464;18.976;2023-05-21T00:58:24;99923.03;;;19.84;54.16
65666;BME280;52365;47.464;18.976;2023-05-21T00:58:45;99925.37;;;19.99;53.94
65666;BME280;52365;47.464;18.976;2023-05-21T00:59:07;99915.41;;;19.77;54.17
65666;BME280;52365;47.464;18.976;2023-05-21T00:59:28;99922.03;;;19.62;54.78
65666;BME280;52365;47.464;18.976;2023-05-21T00:59:52;99926.25;;;19.58;54.93
65666;BME280;52365;47.464;18.976;2023-05-21T01:00:13;99917.91;;;19.45;55.26
65666;BME280;52365;47.464;18.976;2023-05-21T01:00:35;99920.81;;;19.52;55.12
65666;BME280;52365;47.464;18.976;2023-05-21T01:00:58;99921.81;;;19.55;54.98
65666;BME280;52365;47.464;18.976;2023-05-21T01:01:24;99925.94;;;19.67;54.91
65666;BME280;52365;47.464;18.976;2023-05-21T01:01:53;99928.53;;;19.54;55.04
65666;BME280;52365;47.464;18.976;2023-05-21T01:02:15;99920.03;;;19.57;54.93
65666;BME280;52365;47.464;18.976;2023-05-21T01:02:38;99924.87;;;19.46;55.09
65666;BME280;52365;47.464;18.976;2023-05-21T01:03:02;99922.94;;;19.41;55.49
65666;BME280;52365;47.464;18.976;2023-05-21T01:03:24;99919.41;;;19.46;55.28
65666;BME280;52365;47.464;18.976;2023-05-21T01:03:45;99924.69;;;19.68;54.92
65666;BME280;52365;47.464;18.976;2023-05-21T01:04:03;99931.41;;;19.92;54.14
65666;BME280;52365;47.464;18.976;2023-05-21T01:04:24;99932.56;;;19.77;54.29
65666;BME280;52365;47.464;18.976;2023-05-21T01:04:46;99925.19;;;19.91;54.05
65666;BME280;52365;47.464;18.976;2023-05-21T01:05:07;99928.44;;;19.90;53.98
65666;BME280;52365;47.464;18.976;2023-05-21T01:05:28;99922.03;;;19.62;54.62
65666;BME280;52365;47.464;18.976;2023-05-21T01:05:50;99929.22;;;19.60;54.96
65666;BME280;52365;47.464;18.976;2023-05-21T01:06:13;99924.91;;;19.95;54.17
65666;BME280;52365;47.464;18.976;2023-05-21T01:06:34;99918.75;;;19.88;54.14
65666;BME280;52365;47.464;18.976;2023-05-21T01:06:55;99919.75;;;20.10;53.59
65666;BME280;52365;47.464;18.976;2023-05-21T01:07:18;99920.06;;;20.06;53.49
65666;BME280;52365;47.464;18.976;2023-05-21T01:07:39;99921.25;;;20.11;53.68
65666;BME280;52365;47.464;18.976;2023-05-21T01:08:01;99917.87;;;20.24;53.09
65666;BME280;52365;47.464;18.976;2023-05-21T01:08:22;99926.81;;;20.24;53.20
65666;BME280;52365;47.464;18.976;2023-05-21T01:08:43;99923.78;;;20.47;52.68
65666;BME280;52365;47.464;18.976;2023-05-21T01:09:05;99919.81;;;20.67;52.16
65666;BME280;52365;47.464;18.976;2023-05-21T01:09:27;99921.16;;;20.60;52.12
65666;BME280;52365;47.464;18.976;2023-05-21T01:09:48;99917.41;;;20.76;51.83
65666;BME280;52365;47.464;18.976;2023-05-21T01:10:10;99927.66;;;20.57;52.01
65666;BME280;52365;47.464;18.976;2023-05-21T01:10:31;99912.91;;;20.41;52.49
65666;BME280;52365;47.464;18.976;2023-05-21T01:10:52;99910.94;;;20.60;52.30
65666;BME280;52365;47.464;18.976;2023-05-21T01:11:13;99916.09;;;20.83;51.64
65666;BME280;52365;47.464;18.976;2023-05-21T01:11:39;99922.53;;;20.85;51.42
65666;BME280;52365;47.464;18.976;2023-05-21T01:12:01;99917.13;;;20.80;51.48
65666;BME280;52365;47.464;18.976;2023-05-21T01:12:23;99913.66;;;20.60;51.80
65666;BME280;52365;47.464;18.976;2023-05-21T01:12:45;99918.78;;;20.70;51.80
65666;BME280;52365;47.464;18.976;2023-05-21T01:13:07;99929.75;;;20.51;52.22
65666;BME280;52365;47.464;18.976;2023-05-21T01:13:29;99923.00;;;20.52;52.25
65666;BME280;52365;47.464;18.976;2023-05-21T01:13:51;99920.19;;;20.14;53.06
65666;BME280;52365;47.464;18.976;2023-05-21T01:14:12;99914.81;;;20.27;53.01
65666;BME280;52365;47.464;18.976;2023-05-21T01:14:36;99916.06;;;20.26;53.01
65666;BME280;52365;47.464;18.976;2023-05-21T01:14:59;99920.44;;;20.35;52.69
65666;BME280;52365;47.464;18.976;2023-05-21T01:15:22;99917.72;;;20.35;52.80
65666;BME280;52365;47.464;18.976;2023-05-21T01:15:43;99914.91;;;20.22;53.22
65666;BME280;52365;47.464;18.976;2023-05-21T01:16:06;99920.81;;;20.45;52.62
65666;BME280;52365;47.464;18.976;2023-05-21T01:16:28;99923.66;;;20.58;52.23
65666;BME280;52365;47.464;18.976;2023-05-21T01:16:52;99916.06;;;20.51;52.39
65666;BME280;52365;47.464;18.976;2023-05-21T01:17:13;99916.00;;;20.13;53.09
65666;BME280;52365;47.464;18.976;2023-05-21T01:17:35;99917.50;;;19.90;53.75
65666;BME280;52365;47.464;18.976;2023-05-21T01:17:56;99918.53;;;19.86;54.24
65666;BME280;52365;47.464;18.976;2023-05-21T01:18:17;99912.59;;;19.82;54.15
65666;BME280;52365;47.464;18.976;2023-05-21T01:18:35;99916.56;;;19.57;54.79
65666;BME280;52365;47.464;18.976;2023-05-21T01:18:57;99913.97;;;19.70;54.75
65666;BME280;52365;47.464;18.976;2023-05-21T01:19:20;99911.34;;;19.83;54.42
65666;BME280;52365;47.464;18.976;2023-05-21T01:19:42;99913.03;;;19.68;54.58
65666;BME280;52365;47.464;18.976;2023-05-21T01:20:05;99913.22;;;19.70;54.86
65666;BME280;52365;47.464;18.976;2023-05-21T01:20:27;99910.97;;;19.44;55.47
65666;BME280;52365;47.464;18.976;2023-05-21T01:20:50;99909.87;;;19.58;55.24
65666;BME280;52365;47.464;18.976;2023-05-21T01:21:12;99911.09;;;19.62;55.04
65666;BME280;52365;47.464;18.976;2023-05-21T01:21:40;99914.41;;;19.50;55.47
65666;BME280;52365;47.464;18.976;2023-05-21T01:22:05;99907.69;;;19.51;55.25
65666;BME280;52365;47.464;18.976;2023-05-21T01:22:27;99913.53;;;19.36;55.74
65666;BME280;52365;47.464;18.976;2023-05-21T01:22:55;99913.09;;;19.26;55.82
65666;BME280;52365;47.464;18.976;2023-05-21T01:23:16;99910.44;;;19.21;56.40
65666;BME280;52365;47.464;18.976;2023-05-21T01:23:38;99908.53;;;19.10;56.39
65666;BME280;52365;47.464;18.976;2023-05-21T01:23:59;99910.47;;;19.15;56.39
65666;BME280;52365;47.464;18.976;2023-05-21T01:24:21;99912.16;;;19.24;56.15
65666;BME280;52365;47.464;18.976;2023-05-21T01:24:44;99906.62;;;18.99;56.66
65666;BME280;52365;47.464;18.976;2023-05-21T01:25:02;99911.28;;;19.10;56.50
65666;BME280;52365;47.464;18.976;2023-05-21T01:25:23;99913.22;;;19.15;56.43
65666;BME280;52365;47.464;18.976;2023-05-21T01:25:45;99908.69;;;19.23;56.17
65666;BME280;52365;47.464;18.976;2023-05-21T01:26:06;99901.16;;;19.29;55.75
65666;BME280;52365;47.464;18.976;2023-05-21T01:26:28;99912.75;;;19.41;55.50
65666;BME280;52365;47.464;18.976;2023-05-21T01:26:50;99909.78;;;19.39;55.55
65666;BME280;52365;47.464;18.976;2023-05-21T01:27:12;99908.19;;;19.49;55.36
65666;BME280;52365;47.464;18.976;2023-05-21T01:27:33;99906.97;;;19.45;55.54
65666;BME280;52365;47.464;18.976;2023-05-21T01:27:54;99906.69;;;19.48;55.31
65666;BME280;52365;47.464;18.976;2023-05-21T01:28:11;99903.88;;;19.59;54.97
65666;BME280;52365;47.464;18.976;2023-05-21T01:28:32;99901.84;;;19.66;54.75
65666;BME280;52365;47.464;18.976;2023-05-21T01:28:54;99902.63;;;19.60;54.74
65666;BME280;52365;47.464;18.976;2023-05-21T01:29:15;99900.69;;;19.55;55.04
65666;BME280;52365;47.464;18.976;2023-05-21T01:29:36;99910.13;;;19.54;55.18
65666;BME280;52365;47.464;18.976;2023-05-21T01:29:58;99910.41;;;19.51;55.08
65666;BME280;52365;47.464;18.976;2023-05-21T01:30:20;99913.88;;;19.51;55.14
65666;BME280;52365;47.464;18.976;2023-05-21T01:30:42;99898.75;;;19.50;55.09
65666;BME280;52365;47.464;18.976;2023-05-21T01:31:14;99908.94;;;19.50;55.12
65666;BME280;52365;47.464;18.976;2023-05-21T01:32:21;99908.50;;;19.70;54.67
65666;BME280;52365;47.464;18.976;2023-05-21T01:33:10;99910.37;;;19.26;55.76
65666;BME280;52365;47.464;18.976;2023-05-21T01:33:38;99909.63;;;19.26;56.06
65666;BME280;52365;47.464;18.976;2023-05-21T01:34:04;99906.09;;;19.36;55.83
65666;BME280;52365;47.464;18.976;2023-05-21T01:34:33;99904.69;;;19.24;55.93
65666;BME280;52365;47.464;18.976;2023-05-21T01:35:02;99905.09;;;19.64;54.91
65666;BME280;52365;47.464;18.976;2023-05-21T01:35:29;99907.94;;;19.77;54.42
65666;BME280;52365;47.464;18.976;2023-05-21T01:36:01;99906.69;;;19.78;54.12
65666;BME280;52365;47.464;18.976;2023-05-21T01:36:28;99904.22;;;19.50;55.13
65666;BME280;52365;47.464;18.976;2023-05-21T01:36:54;99905.16;;;19.28;55.56
65666;BME280;52365;47.464;18.976;2023-05-21T01:37:20;99905.16;;;19.53;55.46
65666;BME280;52365;47.464;18.976;2023-05-21T01:38:23;99908.47;;;19.76;54.28
65666;BME280;52365;47.464;18.976;2023-05-21T01:39:11;99904.50;;;19.47;54.89
65666;BME280;52365;47.464;18.976;2023-05-21T01:39:38;99912.81;;;19.60;54.94
65666;BME280;52365;47.464;18.976;2023-05-21T01:40:15;99916.81;;;19.59;54.92
65666;BME280;52365;47.464;18.976;2023-05-21T01:40:46;99914.88;;;19.54;54.82
65666;BME280;52365;47.464;18.976;2023-05-21T01:41:10;99909.59;;;19.61;54.54
65666;BME280;52365;47.464;18.976;2023-05-21T01:41:33;99916.44;;;19.44;55.05
65666;BME280;52365;47.464;18.976;2023-05-21T01:41:56;99919.97;;;19.38;55.17
65666;BME280;52365;47.464;18.976;2023-05-21T01:42:18;99913.75;;;19.08;56.02
65666;BME280;52365;47.464;18.976;2023-05-21T01:42:43;99915.63;;;19.24;55.86
65666;BME280;52365;47.464;18.976;2023-05-21T01:43:06;99919.28;;;19.32;55.50
65666;BME280;52365;47.464;18.976;2023-05-21T01:43:30;99912.84;;;19.30;55.50
65666;BME280;52365;47.464;18.976;2023-05-21T01:43:54;99913.62;;;19.25;55.58
65666;BME280;52365;47.464;18.976;2023-05-21T01:44:17;99907.28;;;19.11;56.12
65666;BME280;52365;47.464;18.976;2023-05-21T01:44:38;99908.50;;;19.16;56.05
65666;BME280;52365;47.464;18.976;2023-05-21T01:44:56;99910.50;;;19.09;56.29
65666;BME280;52365;47.464;18.976;2023-05-21T01:45:21;99905.59;;;19.02;56.46
65666;BME280;52365;47.464;18.976;2023-05-21T01:45:44;99913.62;;;19.25;55.99
65666;BME280;52365;47.464;18.976;2023-05-21T01:46:08;99914.41;;;19.20;55.97
65666;BME280;52365;47.464;18.976;2023-05-21T01:46:32;99912.09;;;19.29;55.91
65666;BME280;52365;47.464;18.976;2023-05-21T01:46:55;99907.56;;;19.07;56.48
65666;BME280;52365;47.464;18.976;2023-05-21T01:47:17;99920.66;;;19.15;56.18
65666;BME280;52365;47.464;18.976;2023-05-21T01:47:39;99916.63;;;19.21;56.18
65666;BME280;52365;47.464;18.976;2023-05-21T01:48:02;99917.41;;;19.16;56.10
65666;BME280;52365;47.464;18.976;2023-05-21T01:48:27;99909.06;;;19.03;56.52
65666;BME280;52365;47.464;18.976;2023-05-21T01:48:49;99914.53;;;19.03;56.73
65666;BME280;52365;47.464;18.976;2023-05-21T01:49:12;99919.81;;;19.25;56.12
65666;BME280;52365;47.464;18.976;2023-05-21T01:49:34;99912.63;;;19.52;55.34
65666;BME280;52365;47.464;18.976;2023-05-21T01:49:50;99913.28;;;19.64;54.83
65666;BME280;52365;47.464;18.976;2023-05-21T01:50:12;99914.91;;;19.48;55.16
65666;BME280;52365;47.464;18.976;2023-05-21T01:50:34;99918.28;;;19.30;55.50
65666;BME280;52365;47.464;18.976;2023-05-21T01:50:59;99919.31;;;19.27;55.84
65666;BME280;52365;47.464;18.976;2023-05-21T01:51:22;99921.22;;;19.37;55.47
65666;BME280;52365;47.464;18.976;2023-05-21T01:51:43;99919.03;;;19.30;55.51
65666;BME280;52365;47.464;18.976;2023-05-21T01:52:05;99915.28;;;19.33;55.56
65666;BME280;52365;47.464;18.976;2023-05-21T01:52:26;99909.22;;;19.16;55.86
65666;BME280;52365;47.464;18.976;2023-05-21T01:52:52;99910.37;;;19.26;55.74
65666;BME280;52365;47.464;18.976;2023-05-21T01:53:13;99918.69;;;18.79;56.87
65666;BME280;52365;47.464;18.976;2023-05-21T01:53:35;99911.88;;;18.92;57.13
65666;BME280;52365;47.464;18.976;2023-05-21T01:53:58;99910.22;;;19.13;56.51
65666;BME280;52365;47.464;18.976;2023-05-21T01:54:19;99898.38;;;19.05;56.27
65666;BME280;52365;47.464;18.976;2023-05-21T01:54:41;99908.81;;;19.36;55.62
65666;BME280;52365;47.464;18.976;2023-05-21T01:54:57;99912.00;;;19.41;55.43
65666;BME280;52365;47.464;18.976;2023-05-21T01:55:20;99909.03;;;19.38;55.32
65666;BME280;52365;47.464;18.976;2023-05-21T01:55:44;99915.63;;;19.24;55.87
65666;BME280;52365;47.464;18.976;2023-05-21T01:56:05;99903.53;;;18.78;56.80
65666;BME280;52365;47.464;18.976;2023-05-21T01:56:27;99906.72;;;18.82;57.08
65666;BME280;52365;47.464;18.976;2023-05-21T01:56:48;99905.34;;;19.06;56.69
65666;BME280;52365;47.464;18.976;2023-05-21T01:57:10;99907.34;;;19.00;56.65